Time;durP1;ratioP1;P1;durP2;ratioP2;P2;SDS_P1;SDS_P2;PMS_P1;PMS_P2;Temp;Humidity;BMP_temperature;BMP_pressure;BME280_temperature;BME280_humidity;BME280_pressure;Samples;Min_cycle;Max_cycle;Signal;HPM_P1;HPM_P2
2021/05/03 00:00:11;;;;;;;4.97;2.47;;;7.40;99.90;;;;;;5021037;28;20300;-85
2021/05/03 00:02:37;;;;;;;5.00;2.78;;;7.40;99.90;;;;;;5030479;28;20060;-85
2021/05/03 00:05:17;;;;;;;6.28;3.00;;;7.30;99.90;;;;;;5040488;28;20025;-85
2021/05/03 00:07:42;;;;;;;6.07;2.75;;;7.40;99.90;;;;;;5037185;28;20052;-86
2021/05/03 00:10:08;;;;;;;4.20;2.50;;;7.30;99.90;;;;;;5026388;28;20029;-85
2021/05/03 00:12:34;;;;;;;5.20;3.22;;;7.20;99.90;;;;;;5038687;28;20493;-85
2021/05/03 00:14:59;;;;;;;5.88;3.20;;;7.20;99.90;;;;;;5058707;28;20029;-86
2021/05/03 00:17:25;;;;;;;5.23;2.90;;;7.20;99.90;;;;;;5030763;28;20022;-85
2021/05/03 00:19:51;;;;;;;7.20;2.90;;;7.10;99.90;;;;;;5054708;28;20033;-86
2021/05/03 00:22:16;;;;;;;5.20;3.05;;;7.10;99.90;;;;;;5026628;28;20048;-85
2021/05/03 00:24:42;;;;;;;6.28;3.25;;;7.00;99.90;;;;;;5040692;28;20389;-85
2021/05/03 00:27:07;;;;;;;5.88;3.35;;;7.00;99.90;;;;;;5057493;28;20033;-86
2021/05/03 00:29:33;;;;;;;6.18;3.28;;;7.00;99.90;;;;;;5039387;28;20029;-87
2021/05/03 00:31:58;;;;;;;5.97;3.30;;;7.00;99.90;;;;;;5022746;28;20060;-86
2021/05/03 00:34:24;;;;;;;5.50;3.20;;;6.90;99.90;;;;;;5034061;28;20493;-86
2021/05/03 00:36:50;;;;;;;6.63;3.80;;;6.90;99.90;;;;;;5027532;28;20037;-86
2021/05/03 00:39:15;;;;;;;6.07;3.13;;;6.90;99.90;;;;;;5033360;28;20037;-86
2021/05/03 00:41:41;;;;;;;5.97;3.40;;;6.90;99.90;;;;;;5022502;28;20029;-87
2021/05/03 00:44:07;;;;;;;6.03;3.30;;;6.90;99.90;;;;;;5011745;28;20128;-85
2021/05/03 00:46:32;;;;;;;5.90;3.20;;;6.80;99.90;;;;;;5050753;28;20100;-84
2021/05/03 00:48:58;;;;;;;6.13;3.23;;;6.80;99.90;;;;;;5048324;28;20025;-85
2021/05/03 00:51:24;;;;;;;6.20;3.57;;;6.70;99.90;;;;;;5035682;28;20549;-85
2021/05/03 00:53:50;;;;;;;4.77;3.30;;;6.60;99.90;;;;;;5020488;28;20033;-85
2021/05/03 00:56:15;;;;;;;5.97;3.47;;;6.60;99.90;;;;;;5020405;28;20096;-86
2021/05/03 00:58:41;;;;;;;6.23;3.57;;;6.60;99.90;;;;;;5045285;28;20055;-84
2021/05/03 01:01:07;;;;;;;6.30;3.87;;;6.60;99.90;;;;;;5025377;28;20034;-85
2021/05/03 01:03:32;;;;;;;7.17;3.43;;;6.60;99.90;;;;;;5033518;28;20123;-84
2021/05/03 01:05:58;;;;;;;7.10;3.43;;;6.70;99.90;;;;;;5036319;28;20160;-86
2021/05/03 01:08:24;;;;;;;7.03;3.63;;;6.60;99.90;;;;;;5019747;28;20467;-86
2021/05/03 01:10:50;;;;;;;8.00;3.90;;;6.60;99.90;;;;;;5033887;28;20018;-86
2021/05/03 01:13:16;;;;;;;6.53;3.67;;;6.70;99.90;;;;;;5019288;28;20070;-85
2021/05/03 01:15:41;;;;;;;7.23;3.67;;;6.60;99.90;;;;;;5023257;28;20021;-85
2021/05/03 01:18:07;;;;;;;7.85;4.10;;;6.60;99.90;;;;;;5021227;28;20067;-86
2021/05/03 01:20:36;;;;;;;7.63;4.10;;;6.60;99.90;;;;;;5032916;28;20087;-84
2021/05/03 01:23:03;;;;;;;7.10;4.20;;;6.50;99.90;;;;;;5028965;28;20037;-84
2021/05/03 01:25:32;;;;;;;7.97;4.60;;;6.30;99.90;;;;;;5049732;28;20021;-86
2021/05/03 01:28:02;;;;;;;8.43;4.87;;;6.30;99.90;;;;;;5020633;28;20021;-85
2021/05/03 01:30:40;;;;;;;6.87;4.77;;;6.30;99.90;;;;;;5021354;28;20079;-85
2021/05/03 01:33:07;;;;;;;8.27;4.67;;;6.30;99.90;;;;;;5014125;28;20387;-86
2021/05/03 01:35:34;;;;;;;6.87;4.33;;;6.40;99.90;;;;;;5032288;28;20027;-86
2021/05/03 01:38:00;;;;;;;8.00;5.17;;;6.40;99.90;;;;;;5020206;28;20490;-86
2021/05/03 01:40:29;;;;;;;8.20;4.10;;;6.40;99.90;;;;;;5033559;28;20052;-85
2021/05/03 01:42:55;;;;;;;6.63;3.83;;;6.40;99.90;;;;;;5044456;28;20035;-85
2021/05/03 01:45:26;;;;;;;7.73;4.17;;;6.40;99.90;;;;;;5041973;28;20037;-86
2021/05/03 01:47:53;;;;;;;6.83;4.13;;;6.40;99.90;;;;;;5018255;28;20026;-86
2021/05/03 01:50:21;;;;;;;6.30;4.00;;;6.30;99.90;;;;;;5020913;28;20045;-85
2021/05/03 01:52:48;;;;;;;5.77;4.00;;;6.30;99.90;;;;;;5036939;28;20025;-85
2021/05/03 01:55:14;;;;;;;7.80;3.97;;;6.30;99.90;;;;;;5021890;28;20057;-86
2021/05/03 01:57:41;;;;;;;7.10;4.30;;;6.30;99.90;;;;;;5010574;28;20608;-83
2021/05/03 02:00:08;;;;;;;7.63;4.30;;;6.20;99.90;;;;;;5038094;28;20091;-85
2021/05/03 02:02:34;;;;;;;7.00;4.50;;;6.20;99.90;;;;;;5052787;28;20083;-85
2021/05/03 02:05:00;;;;;;;7.47;4.37;;;6.10;99.90;;;;;;5028134;28;20025;-86
2021/05/03 02:07:25;;;;;;;6.97;3.97;;;6.10;99.90;;;;;;5034942;28;20116;-86
2021/05/03 02:09:51;;;;;;;8.33;4.03;;;6.00;99.90;;;;;;5033994;28;20025;-86
2021/05/03 02:12:17;;;;;;;7.77;4.53;;;6.00;99.90;;;;;;5033645;28;20018;-86
2021/05/03 02:14:43;;;;;;;7.87;4.63;;;6.00;99.90;;;;;;5039131;28;20044;-85
2021/05/03 02:17:10;;;;;;;7.53;4.50;;;6.00;99.90;;;;;;5013125;28;20368;-85
2021/05/03 02:19:36;;;;;;;6.40;4.00;;;5.90;99.90;;;;;;5045510;28;20029;-86
2021/05/03 02:22:03;;;;;;;8.13;5.13;;;6.10;99.90;;;;;;5019997;28;20060;-86
2021/05/03 02:24:29;;;;;;;7.63;5.17;;;5.90;99.90;;;;;;5017995;28;20635;-85
2021/05/03 02:26:56;;;;;;;8.67;5.30;;;5.90;99.90;;;;;;5052657;28;20060;-85
2021/05/03 02:29:21;;;;;;;10.47;5.37;;;5.90;99.90;;;;;;5025554;28;20112;-85
2021/05/03 02:31:47;;;;;;;8.60;5.23;;;5.80;99.90;;;;;;5050880;28;20106;-86
2021/05/03 02:34:13;;;;;;;8.90;5.60;;;5.80;99.90;;;;;;5034275;28;20037;-85
2021/05/03 02:36:39;;;;;;;8.77;5.57;;;5.70;99.90;;;;;;5039156;28;20061;-85
2021/05/03 02:39:05;;;;;;;10.77;5.93;;;5.70;99.90;;;;;;5047537;28;20581;-85
2021/05/03 02:41:32;;;;;;;10.80;6.27;;;5.60;99.90;;;;;;5038163;28;20033;-86
2021/05/03 02:43:58;;;;;;;9.50;5.60;;;5.60;99.90;;;;;;5035469;28;20466;-85
2021/05/03 02:46:24;;;;;;;10.50;5.63;;;5.60;99.90;;;;;;5024808;28;20022;-85
2021/05/03 02:48:49;;;;;;;8.47;5.53;;;5.60;99.90;;;;;;5044597;28;20029;-85
2021/05/03 02:51:15;;;;;;;8.67;5.27;;;5.50;99.90;;;;;;5032831;28;20072;-84
2021/05/03 02:53:40;;;;;;;9.07;5.57;;;5.50;99.90;;;;;;5050973;28;20482;-86
2021/05/03 02:56:06;;;;;;;10.07;5.83;;;5.50;99.90;;;;;;5041914;28;20056;-85
2021/05/03 02:58:31;;;;;;;9.50;5.63;;;5.50;99.90;;;;;;5024095;28;20045;-85
2021/05/03 03:00:57;;;;;;;9.17;5.37;;;5.40;99.90;;;;;;5059191;28;20112;-85
2021/05/03 03:03:23;;;;;;;10.47;6.30;;;5.40;99.90;;;;;;5051643;28;20033;-85
2021/05/03 03:05:48;;;;;;;8.43;5.73;;;5.40;99.90;;;;;;5051414;28;20347;-85
2021/05/03 03:08:14;;;;;;;9.43;5.60;;;5.30;99.90;;;;;;5040728;28;20547;-85
2021/05/03 03:10:39;;;;;;;8.37;5.67;;;5.30;99.90;;;;;;5040358;28;20033;-84
2021/05/03 03:13:05;;;;;;;11.73;6.37;;;5.20;99.90;;;;;;5057958;28;20103;-85
2021/05/03 03:15:35;;;;;;;11.60;6.37;;;5.20;99.90;;;;;;5021272;28;20029;-86
2021/05/03 03:18:02;;;;;;;10.20;6.87;;;5.20;99.90;;;;;;5040411;28;20075;-85
2021/05/03 03:20:28;;;;;;;10.00;6.80;;;5.20;99.90;;;;;;5024560;28;20025;-85
2021/05/03 03:22:53;;;;;;;10.03;6.20;;;5.20;99.90;;;;;;5021886;28;20032;-86
2021/05/03 03:25:19;;;;;;;9.47;6.07;;;5.20;99.90;;;;;;5028672;28;20033;-85
2021/05/03 03:27:46;;;;;;;9.77;6.20;;;5.20;99.90;;;;;;5048338;28;20108;-85
2021/05/03 03:30:13;;;;;;;11.20;6.43;;;5.20;99.90;;;;;;5030351;28;20060;-86
2021/05/03 03:32:43;;;;;;;12.60;6.97;;;5.20;99.90;;;;;;5055175;28;20029;-85
2021/05/03 03:35:13;;;;;;;11.10;7.00;;;5.30;99.90;;;;;;5026269;28;20025;-86
2021/05/03 03:37:39;;;;;;;11.40;7.10;;;5.20;99.90;;;;;;5054360;28;20178;-85
2021/05/03 03:40:05;;;;;;;12.23;7.70;;;4.90;99.90;;;;;;5032206;28;20053;-85
2021/05/03 03:42:32;;;;;;;12.83;8.03;;;4.80;99.90;;;;;;5036998;28;20064;-85
2021/05/03 03:44:58;;;;;;;13.97;7.57;;;4.70;99.90;;;;;;5034040;28;20075;-85
2021/05/03 03:47:24;;;;;;;11.70;8.00;;;4.70;99.90;;;;;;5021579;28;20457;-86
2021/05/03 03:49:50;;;;;;;14.67;7.83;;;4.70;99.90;;;;;;5038151;28;20029;-86
2021/05/03 03:52:15;;;;;;;12.17;7.87;;;4.80;99.90;;;;;;5056072;28;20111;-85
2021/05/03 03:54:41;;;;;;;13.93;8.40;;;4.90;99.90;;;;;;5055136;28;20053;-86
2021/05/03 03:57:06;;;;;;;12.63;8.13;;;4.80;99.90;;;;;;5029947;28;20096;-86
2021/05/03 03:59:36;;;;;;;13.00;8.73;;;4.90;99.90;;;;;;5029111;28;20040;-85
2021/05/03 04:02:01;;;;;;;10.70;7.83;;;5.00;99.90;;;;;;5029709;28;20029;-85
2021/05/03 04:04:30;;;;;;;12.40;7.27;;;5.20;99.90;;;;;;5022670;28;20036;-85
2021/05/03 04:25:36;;;;;;;13.13;8.00;;;5.30;99.90;;;;;;5040628;28;20048;-84
2021/05/03 04:28:02;;;;;;;10.97;7.80;;;5.40;99.90;;;;;;5028376;28;20033;-85
2021/05/03 04:30:28;;;;;;;11.20;7.60;;;5.40;99.90;;;;;;5036875;28;20493;-85
2021/05/03 04:32:54;;;;;;;11.40;7.63;;;5.50;99.90;;;;;;5018327;28;20053;-85
2021/05/03 04:35:20;;;;;;;12.00;8.27;;;5.50;99.90;;;;;;5032784;28;20382;-84
2021/05/03 04:37:45;;;;;;;12.20;8.17;;;5.50;99.90;;;;;;5012286;28;20159;-84
2021/05/03 04:40:12;;;;;;;12.73;7.10;;;5.50;99.90;;;;;;5039999;28;20025;-84
2021/05/03 04:42:40;;;;;;;10.93;7.40;;;5.50;99.90;;;;;;5035021;28;20036;-85
2021/05/03 04:45:07;;;;;;;12.00;8.00;;;5.60;99.90;;;;;;5036504;28;20037;-84
2021/05/03 04:47:34;;;;;;;11.03;7.50;;;5.50;99.90;;;;;;5052475;28;20478;-84
2021/05/03 04:49:59;;;;;;;11.77;7.70;;;5.50;99.90;;;;;;5034878;28;20025;-84
2021/05/03 04:52:28;;;;;;;11.83;7.53;;;5.60;99.90;;;;;;5027208;28;20112;-84
2021/05/03 04:54:54;;;;;;;12.03;7.87;;;5.50;99.90;;;;;;5049640;28;20506;-84
2021/05/03 04:57:20;;;;;;;11.63;7.60;;;5.60;99.90;;;;;;5033861;28;20025;-84
2021/05/03 04:59:45;;;;;;;11.27;7.40;;;5.70;99.90;;;;;;5022900;28;20025;-85
2021/05/03 05:02:11;;;;;;;13.20;8.13;;;5.70;99.90;;;;;;5024637;28;20128;-85
2021/05/03 05:04:37;;;;;;;12.70;8.53;;;5.80;99.90;;;;;;5016020;28;20040;-85
2021/05/03 05:07:03;;;;;;;11.43;8.10;;;5.90;99.90;;;;;;5016275;28;20025;-86
2021/05/03 05:09:29;;;;;;;12.70;7.90;;;6.10;99.90;;;;;;5049905;28;20021;-85
2021/05/03 05:11:54;;;;;;;12.87;8.20;;;5.90;99.90;;;;;;5022338;28;20459;-85
2021/05/03 05:14:20;;;;;;;14.17;7.23;;;5.90;99.90;;;;;;5017012;28;20033;-85
2021/05/03 05:16:48;;;;;;;12.57;8.13;;;6.00;99.90;;;;;;5017801;28;20037;-86
2021/05/03 05:19:14;;;;;;;12.30;8.10;;;6.00;99.90;;;;;;5034668;28;20040;-85
2021/05/03 05:21:40;;;;;;;11.70;7.50;;;6.00;99.90;;;;;;5048455;28;20037;-84
2021/05/03 05:24:06;;;;;;;12.23;7.13;;;6.10;99.90;;;;;;5020111;28;20021;-85
2021/05/03 05:26:32;;;;;;;18.70;9.53;;;6.10;99.90;;;;;;5034063;28;20403;-85
2021/05/03 05:28:57;;;;;;;11.50;7.77;;;6.10;99.90;;;;;;5033903;28;20025;-84
2021/05/03 05:31:23;;;;;;;12.70;7.40;;;6.00;99.90;;;;;;5010358;28;20548;-85
2021/05/03 05:33:49;;;;;;;12.90;8.07;;;5.80;99.90;;;;;;5033816;28;20021;-85
2021/05/03 05:36:14;;;;;;;13.57;8.33;;;5.80;99.90;;;;;;5025567;28;20028;-86
2021/05/03 05:38:40;;;;;;;12.17;7.53;;;5.50;99.90;;;;;;5035544;28;20067;-85
2021/05/03 05:41:06;;;;;;;14.03;8.60;;;5.40;99.90;;;;;;5016935;28;20030;-85
2021/05/03 05:43:31;;;;;;;12.70;8.37;;;5.50;99.90;;;;;;5020929;28;20127;-83
2021/05/03 05:45:58;;;;;;;15.87;8.67;;;5.60;99.90;;;;;;5035582;28;20120;-85
2021/05/03 05:48:23;;;;;;;13.57;8.10;;;5.70;99.90;;;;;;5017719;28;20017;-86
2021/05/03 05:50:49;;;;;;;12.47;8.63;;;5.80;99.90;;;;;;5028123;28;20096;-85
2021/05/03 05:53:15;;;;;;;12.93;8.30;;;6.10;99.90;;;;;;5016422;28;20026;-84
2021/05/03 05:55:41;;;;;;;13.37;8.10;;;6.30;99.90;;;;;;5022976;28;20017;-84
2021/05/03 05:58:07;;;;;;;14.23;9.47;;;6.50;99.90;;;;;;5024106;28;20478;-86
2021/05/03 06:00:33;;;;;;;10.87;7.70;;;6.70;99.90;;;;;;5016009;28;20033;-84
2021/05/03 06:02:59;;;;;;;11.33;7.67;;;6.80;99.90;;;;;;5014366;28;20087;-86
2021/05/03 06:05:25;;;;;;;11.83;7.57;;;6.90;99.90;;;;;;5030061;28;20033;-85
2021/05/03 06:07:51;;;;;;;11.77;7.50;;;7.00;99.90;;;;;;5031979;28;20033;-86
2021/05/03 06:10:17;;;;;;;12.43;7.73;;;7.10;99.90;;;;;;5038269;28;20029;-86
2021/05/03 06:12:43;;;;;;;10.77;7.30;;;7.10;99.90;;;;;;5019148;28;20118;-86
2021/05/03 06:15:09;;;;;;;12.47;8.00;;;7.30;99.90;;;;;;5020931;28;20093;-84
2021/05/03 06:17:36;;;;;;;12.53;8.37;;;7.00;99.90;;;;;;5017599;28;20836;-84
2021/05/03 06:20:03;;;;;;;11.70;8.00;;;6.70;99.90;;;;;;5039608;28;20036;-84
2021/05/03 06:22:30;;;;;;;11.17;7.63;;;6.80;99.90;;;;;;5025771;28;20030;-85
2021/05/03 06:24:56;;;;;;;12.43;7.83;;;6.90;99.90;;;;;;5041312;28;20018;-84
2021/05/03 06:27:21;;;;;;;12.82;7.72;;;7.10;99.90;;;;;;5036005;28;20055;-86
2021/05/03 06:29:47;;;;;;;11.33;7.77;;;7.20;99.90;;;;;;5025511;28;20025;-86
2021/05/03 06:32:13;;;;;;;13.13;7.00;;;7.30;99.90;;;;;;5036876;28;20590;-84
2021/05/03 06:34:39;;;;;;;11.40;7.20;;;7.20;99.90;;;;;;5022229;28;20103;-85
2021/05/03 06:37:06;;;;;;;11.87;7.60;;;7.40;99.90;;;;;;5022194;28;20045;-86
2021/05/03 06:39:31;;;;;;;12.30;7.60;;;7.50;99.90;;;;;;5027648;28;20114;-86
2021/05/03 06:41:57;;;;;;;12.73;8.10;;;7.50;99.90;;;;;;5038638;28;20591;-84
2021/05/03 06:44:23;;;;;;;11.40;7.50;;;7.30;99.90;;;;;;5024745;28;20526;-85
2021/05/03 06:46:48;;;;;;;11.03;6.80;;;7.40;99.90;;;;;;5020107;28;20288;-86
2021/05/03 06:49:14;;;;;;;13.90;7.80;;;7.50;99.90;;;;;;5024843;28;20027;-87
2021/05/03 06:51:40;;;;;;;12.60;7.57;;;7.80;99.90;;;;;;5016406;28;20032;-88
2021/05/03 06:54:06;;;;;;;12.68;7.32;;;8.00;99.90;;;;;;5035618;28;20572;-87
2021/05/03 06:56:32;;;;;;;10.93;7.68;;;7.70;99.90;;;;;;5016774;28;20032;-88
2021/05/03 06:58:57;;;;;;;12.15;7.97;;;7.70;99.90;;;;;;5023537;28;20404;-86
2021/05/03 07:01:23;;;;;;;12.60;7.55;;;7.80;99.90;;;;;;5021357;28;20022;-87
2021/05/03 07:03:49;;;;;;;13.50;8.63;;;7.80;99.90;;;;;;5020497;28;20044;-87
2021/05/03 07:06:15;;;;;;;10.50;7.20;;;7.90;99.90;;;;;;5022621;28;20033;-87
2021/05/03 07:08:44;;;;;;;13.75;7.85;;;8.00;99.90;;;;;;5022375;28;20110;-87
2021/05/03 07:11:17;;;;;;;11.93;7.87;;;8.20;99.90;;;;;;5026060;28;20371;-88
2021/05/03 07:13:43;;;;;;;12.07;7.70;;;8.40;99.90;;;;;;5023946;28;20039;-87
2021/05/03 07:16:09;;;;;;;15.00;8.15;;;8.40;99.90;;;;;;5037995;28;20398;-87
2021/05/03 07:18:34;;;;;;;10.70;7.22;;;8.60;99.90;;;;;;5016887;28;20403;-87
2021/05/03 07:21:00;;;;;;;11.20;7.15;;;8.20;99.90;;;;;;5020741;28;20037;-87
2021/05/03 07:23:26;;;;;;;11.38;7.63;;;8.10;99.90;;;;;;5026534;28;20025;-88
2021/05/03 07:25:52;;;;;;;11.52;8.05;;;8.50;99.90;;;;;;5021241;28;20037;-87
2021/05/03 07:28:18;;;;;;;10.23;7.32;;;8.60;99.90;;;;;;5039624;28;20056;-87
2021/05/03 07:30:43;;;;;;;11.90;7.50;;;8.80;99.90;;;;;;5034971;28;20017;-87
2021/05/03 07:33:19;;;;;;;11.88;6.95;;;8.80;99.90;;;;;;5026693;28;20067;-87
2021/05/03 07:35:46;;;;;;;10.60;6.63;;;9.00;99.90;;;;;;5015615;28;20545;-88
2021/05/03 07:38:12;;;;;;;11.52;7.20;;;9.20;99.90;;;;;;5015482;28;20397;-88
2021/05/03 07:40:38;;;;;;;10.75;6.90;;;9.50;99.90;;;;;;5018576;28;20028;-87
2021/05/03 07:43:10;;;;;;;10.48;6.50;;;10.00;99.90;;;;;;5027142;28;20025;-87
2021/05/03 07:45:38;;;;;;;;;;;10.00;99.90;;;;;;5017674;28;20033;-88
2021/05/03 07:48:06;;;;;;;13.18;6.38;;;10.10;99.90;;;;;;5022068;28;20561;-88
2021/05/03 07:50:35;;;;;;;10.45;6.40;;;9.90;99.90;;;;;;5023025;28;20563;-87
2021/05/03 07:53:25;;;;;;;8.93;5.30;;;10.20;99.90;;;;;;5019715;28;20100;-87
2021/05/03 07:55:51;;;;;;;10.65;7.43;;;10.60;99.90;;;;;;5046545;28;20025;-87
2021/05/03 07:58:19;;;;;;;11.05;7.60;;;10.90;99.90;;;;;;5032506;28;20540;-86
2021/05/03 08:00:50;;;;;;;9.45;7.10;;;11.00;99.90;;;;;;5021715;28;20060;-86
2021/05/03 08:03:21;;;;;;;11.15;6.50;;;10.90;99.90;;;;;;5002917;28;20541;-86
2021/05/03 08:05:51;;;;;;;9.52;6.20;;;11.00;99.90;;;;;;5033946;28;20457;-86
2021/05/03 08:08:24;;;;;;;8.88;4.93;;;11.30;99.90;;;;;;5012014;28;20033;-86
2021/05/03 08:10:51;;;;;;;7.07;4.85;;;11.20;99.90;;;;;;5030193;28;20040;-88
2021/05/03 08:13:16;;;;;;;7.72;4.53;;;11.50;99.90;;;;;;5022155;28;20021;-87
2021/05/03 08:15:47;;;;;;;9.90;4.80;;;11.80;99.90;;;;;;5020238;28;20443;-89
2021/05/03 08:18:13;;;;;;;8.70;4.97;;;11.80;98.90;;;;;;5018935;28;20486;-89
2021/05/03 08:20:38;;;;;;;7.63;5.10;;;11.60;98.60;;;;;;5029798;28;20052;-89
2021/05/03 08:23:09;;;;;;;8.45;5.70;;;11.40;97.80;;;;;;5022147;28;20025;-88
2021/05/03 08:25:36;;;;;;;9.77;5.57;;;11.40;97.40;;;;;;5022815;28;20033;-88
2021/05/03 08:28:02;;;;;;;11.20;6.25;;;10.90;99.90;;;;;;5022117;28;20025;-88
2021/05/03 08:30:27;;;;;;;10.25;6.22;;;10.80;99.90;;;;;;5025241;28;20024;-88
2021/05/03 08:32:53;;;;;;;13.18;6.15;;;10.30;99.90;;;;;;5027696;28;20021;-89
2021/05/03 08:35:19;;;;;;;11.90;6.50;;;10.20;99.90;;;;;;5023251;28;20156;-89
2021/05/03 08:37:45;;;;;;;10.43;6.70;;;10.00;99.90;;;;;;5012304;28;20465;-88
2021/05/03 08:40:21;;;;;;;11.93;6.45;;;10.20;99.90;;;;;;5020746;28;20029;-89
2021/05/03 08:42:49;;;;;;;9.40;6.60;;;10.00;99.90;;;;;;5022081;28;20052;-88
2021/05/03 08:45:15;;;;;;;10.07;6.55;;;9.90;99.90;;;;;;5023704;28;20483;-89
2021/05/03 08:47:53;;;;;;;10.30;6.55;;;10.00;99.90;;;;;;5021167;28;20029;-89
2021/05/03 08:50:27;;;;;;;12.05;6.20;;;10.30;99.90;;;;;;5024841;28;20095;-89
2021/05/03 08:52:57;;;;;;;9.20;6.38;;;10.20;99.90;;;;;;5023078;28;20045;-89
2021/05/03 08:55:24;;;;;;;9.55;5.95;;;10.10;99.90;;;;;;5019283;28;20021;-89
2021/05/03 08:57:49;;;;;;;10.63;6.22;;;10.10;99.90;;;;;;5015555;28;20041;-90
2021/05/03 09:00:16;;;;;;;11.85;6.05;;;10.30;99.90;;;;;;5010302;28;20026;-89
2021/05/03 09:02:47;;;;;;;10.30;6.13;;;10.10;99.90;;;;;;5012585;28;20075;-88
2021/05/03 09:05:13;;;;;;;8.20;5.55;;;10.60;99.90;;;;;;5028451;28;20059;-88
2021/05/03 09:07:49;;;;;;;10.48;5.53;;;10.10;99.90;;;;;;5019140;28;20036;-89
2021/05/03 09:10:18;;;;;;;10.02;6.30;;;10.20;99.90;;;;;;5020659;28;20649;-88
2021/05/03 09:12:44;;;;;;;9.93;5.70;;;10.20;99.90;;;;;;5023554;28;20025;-88
2021/05/03 09:15:28;;;;;;;11.02;5.93;;;10.20;99.90;;;;;;5017929;28;20075;-90
2021/05/03 09:17:54;;;;;;;10.93;5.85;;;10.30;99.90;;;;;;5010543;28;20032;-89
2021/05/03 09:20:25;;;;;;;8.90;5.15;;;10.70;99.90;;;;;;5021959;28;20022;-89
2021/05/03 09:25:32;;;;;;;9.63;5.35;;;10.70;99.90;;;;;;5031135;28;20108;-89
2021/05/03 09:28:12;;;;;;;9.88;5.57;;;10.70;99.90;;;;;;5017214;28;20108;-89
2021/05/03 09:30:59;;;;;;;8.90;5.40;;;10.70;99.90;;;;;;5024242;28;20219;-89
2021/05/03 09:33:37;;;;;;;6.45;4.75;;;10.40;99.90;;;;;;5050888;28;20036;-89
2021/05/03 09:36:09;;;;;;;10.50;5.38;;;10.50;98.60;;;;;;5009930;28;20062;-89
2021/05/03 09:38:48;;;;;;;8.43;4.75;;;10.60;98.10;;;;;;5028091;28;20168;-90
2021/05/03 09:41:20;;;;;;;8.48;4.93;;;10.60;98.20;;;;;;5013733;28;20454;-89
2021/05/03 09:43:54;;;;;;;7.72;4.43;;;10.70;97.30;;;;;;5020037;28;20635;-88
2021/05/03 09:46:28;;;;;;;6.28;4.30;;;10.60;98.60;;;;;;5014415;28;20509;-88
2021/05/03 09:48:56;;;;;;;8.25;4.82;;;10.70;98.60;;;;;;5020675;28;20041;-88
2021/05/03 09:51:56;;;;;;;9.85;5.20;;;10.50;99.90;;;;;;5014326;28;20036;-88
2021/05/03 09:54:28;;;;;;;7.97;5.40;;;10.60;99.90;;;;;;5023086;28;20070;-88
2021/05/03 09:57:06;;;;;;;8.95;5.90;;;10.60;99.80;;;;;;5017550;28;20025;-88
2021/05/03 09:59:47;;;;;;;8.38;4.72;;;10.70;99.90;;;;;;5023025;28;20648;-88
2021/05/03 10:02:19;;;;;;;9.85;5.45;;;10.80;99.90;;;;;;5045134;28;20017;-87
2021/05/03 10:05:20;;;;;;;8.70;4.72;;;11.20;99.90;;;;;;5028733;28;20040;-87
2021/05/03 10:07:54;;;;;;;12.23;5.40;;;11.50;99.90;;;;;;5014441;28;20032;-88
2021/05/03 10:10:30;;;;;;;8.13;5.07;;;12.00;99.90;;;;;;5019000;28;20029;-89
2021/05/03 10:12:57;;;;;;;11.05;5.50;;;11.70;98.20;;;;;;5022995;28;20025;-88
2021/05/03 10:15:23;;;;;;;9.88;5.05;;;11.60;98.70;;;;;;5017382;28;20430;-88
2021/05/03 10:17:49;;;;;;;6.85;4.60;;;11.50;96.80;;;;;;5033098;28;20032;-87
2021/05/03 10:20:19;;;;;;;7.25;3.83;;;11.50;95.70;;;;;;5019661;28;20178;-88
2021/05/03 10:22:52;;;;;;;9.13;3.92;;;11.60;96.50;;;;;;5024274;28;20541;-87
2021/05/03 10:25:18;;;;;;;6.63;3.72;;;11.50;91.10;;;;;;5011361;28;20025;-87
2021/05/03 10:27:46;;;;;;;8.15;3.80;;;11.30;90.60;;;;;;5010696;28;20061;-87
2021/05/03 10:30:27;;;;;;;6.28;3.28;;;11.50;91.70;;;;;;5007044;28;20522;-87
2021/05/03 10:33:05;;;;;;;5.55;3.08;;;11.70;90.40;;;;;;5032404;28;20182;-88
2021/05/03 10:35:33;;;;;;;5.22;3.10;;;11.70;85.00;;;;;;5009662;28;20478;-88
2021/05/03 10:37:59;;;;;;;7.70;3.45;;;11.90;84.10;;;;;;5023585;28;20073;-88
2021/05/03 10:40:26;;;;;;;5.60;3.33;;;12.20;79.60;;;;;;5019715;28;20021;-88
2021/05/03 10:43:01;;;;;;;4.60;2.80;;;12.20;77.40;;;;;;5017557;28;20143;-88
2021/05/03 10:51:10;;;;;;;3.63;2.10;;;13.30;71.10;;;;;;5043564;28;20017;-88
2021/05/03 10:53:41;;;;;;;4.20;2.08;;;13.20;73.00;;;;;;5044621;28;20478;-89
2021/05/03 10:56:09;;;;;;;4.88;2.40;;;13.10;69.90;;;;;;5026158;28;20025;-88
2021/05/03 10:58:53;;;;;;;5.38;2.30;;;13.30;72.20;;;;;;5038786;28;20025;-88
2021/05/03 11:01:20;;;;;;;5.50;2.55;;;13.80;70.90;;;;;;5036697;28;20029;-88
2021/05/03 11:03:55;;;;;;;5.20;2.22;;;13.50;68.10;;;;;;5032080;28;20487;-88
2021/05/03 11:06:38;;;;;;;2.92;1.85;;;13.50;66.30;;;;;;5044393;28;20151;-88
2021/05/03 11:11:52;;;;;;;4.97;2.10;;;13.60;65.50;;;;;;5025171;28;20037;-89
2021/05/03 11:14:20;;;;;;;4.90;2.13;;;13.40;62.50;;;;;;5027482;28;20043;-88
2021/05/03 11:17:04;;;;;;;4.20;2.08;;;13.20;63.60;;;;;;5023446;28;20029;-88
2021/05/03 11:22:26;;;;;;;4.07;2.25;;;12.80;62.60;;;;;;5022583;28;20025;-88
2021/05/03 11:25:08;;;;;;;6.07;1.80;;;12.70;66.00;;;;;;5030229;28;20025;-88
2021/05/03 11:30:26;;;;;;;4.22;1.63;;;12.40;63.70;;;;;;5034031;28;20032;-89
2021/05/03 11:32:55;;;;;;;3.25;1.42;;;12.40;63.00;;;;;;5030396;28;20025;-89
2021/05/03 11:35:32;;;;;;;3.53;1.50;;;12.50;63.60;;;;;;5019132;28;20112;-89
2021/05/03 11:38:12;;;;;;;3.63;1.70;;;12.30;61.80;;;;;;5032195;28;20040;-89
2021/05/03 11:46:26;;;;;;;3.75;1.40;;;13.20;61.20;;;;;;5026241;28;20017;-90
2021/05/03 11:48:59;;;;;;;5.25;1.98;;;13.60;61.20;;;;;;5017694;28;20129;-90
2021/05/03 11:51:27;;;;;;;4.10;1.77;;;13.70;58.10;;;;;;5033849;28;20443;-90
2021/05/03 11:53:53;;;;;;;4.45;2.00;;;13.90;57.40;;;;;;5043327;28;20446;-89
2021/05/03 11:56:28;;;;;;;5.55;1.92;;;13.90;58.40;;;;;;5028381;28;20023;-89
2021/05/03 11:58:59;;;;;;;3.72;1.88;;;14.10;58.90;;;;;;5020338;28;20666;-89
2021/05/03 12:01:27;;;;;;;4.32;2.20;;;14.10;59.50;;;;;;5026974;28;20033;-90
2021/05/03 12:03:59;;;;;;;6.45;2.00;;;14.00;57.60;;;;;;5040480;28;20494;-89
2021/05/03 12:06:42;;;;;;;4.47;1.63;;;13.90;57.30;;;;;;5033372;28;20025;-90
2021/05/03 12:09:10;;;;;;;5.30;1.70;;;14.20;57.20;;;;;;5021121;28;20076;-89
2021/05/03 12:11:38;;;;;;;3.00;1.42;;;14.80;56.20;;;;;;5018823;28;20029;-89
2021/05/03 12:14:05;;;;;;;3.78;1.20;;;15.30;54.30;;;;;;5012682;28;20075;-90
2021/05/03 12:16:42;;;;;;;3.03;1.50;;;15.20;55.30;;;;;;5010644;28;20028;-89
2021/05/03 12:19:18;;;;;;;3.10;1.70;;;14.60;54.20;;;;;;5020464;28;20053;-90
2021/05/03 12:21:45;;;;;;;4.70;1.80;;;14.40;54.80;;;;;;5019798;28;20438;-89
2021/05/03 12:24:24;;;;;;;4.03;1.48;;;14.10;55.20;;;;;;5031842;28;20021;-90
2021/05/03 12:27:01;;;;;;;2.58;1.20;;;13.80;54.50;;;;;;5035856;28;20057;-88
2021/05/03 12:29:31;;;;;;;4.55;1.42;;;13.90;56.00;;;;;;5020841;28;20022;-90
2021/05/03 12:31:57;;;;;;;4.60;1.35;;;14.00;56.40;;;;;;5025321;28;20029;-90
2021/05/03 12:34:24;;;;;;;3.60;1.50;;;14.80;58.10;;;;;;5024209;28;20029;-90
2021/05/03 12:37:15;;;;;;;3.78;1.35;;;15.90;57.00;;;;;;5026021;28;20036;-90
2021/05/03 12:40:05;;;;;;;3.35;1.10;;;16.60;52.00;;;;;;5028524;28;20107;-89
2021/05/03 12:42:35;;;;;;;3.38;1.38;;;16.70;52.20;;;;;;5023885;28;20025;-89
2021/05/03 12:45:49;;;;;;;2.50;1.17;;;16.10;49.20;;;;;;5023863;28;20029;-88
2021/05/03 12:50:55;;;;;;;2.80;1.30;;;15.10;51.00;;;;;;5050650;28;20018;-89
2021/05/03 12:53:41;;;;;;;2.95;1.10;;;14.80;53.30;;;;;;5027833;28;20022;-90
2021/05/03 12:56:41;;;;;;;2.00;0.93;;;14.90;53.10;;;;;;5050237;28;20036;-89
2021/05/03 13:01:50;;;;;;;2.85;1.20;;;15.00;52.80;;;;;;5051411;28;20030;-90
2021/05/03 13:29:17;;;;;;;4.22;1.35;;;15.20;51.30;;;;;;5034806;28;20084;-88
2021/05/03 13:31:46;;;;;;;3.50;1.35;;;15.10;50.40;;;;;;5021174;28;20049;-90
2021/05/03 13:34:17;;;;;;;2.80;1.08;;;15.00;51.20;;;;;;5016460;28;20037;-89
2021/05/03 13:36:53;;;;;;;3.55;1.30;;;14.80;52.00;;;;;;5011739;28;20041;-89
2021/05/03 13:39:19;;;;;;;2.70;1.17;;;14.60;51.80;;;;;;5027119;28;20112;-89
2021/05/03 13:41:46;;;;;;;4.32;1.10;;;14.60;53.80;;;;;;5024463;28;20085;-90
2021/05/03 13:44:14;;;;;;;2.65;1.23;;;14.40;51.10;;;;;;5017271;28;20056;-89
2021/05/03 13:46:40;;;;;;;3.33;1.10;;;14.50;53.30;;;;;;5020090;28;20033;-88
2021/05/03 13:49:06;;;;;;;6.00;1.35;;;14.50;53.40;;;;;;5028313;28;20025;-89
2021/05/03 13:51:32;;;;;;;4.38;1.33;;;14.50;54.20;;;;;;5019593;28;20029;-89
2021/05/03 13:53:59;;;;;;;3.78;1.73;;;14.30;51.70;;;;;;5015214;28;20079;-90
2021/05/03 13:56:24;;;;;;;2.55;1.33;;;14.50;53.10;;;;;;5032815;28;20126;-89
2021/05/03 13:58:50;;;;;;;2.33;0.98;;;14.30;53.30;;;;;;5026480;28;20026;-88
2021/05/03 14:01:17;;;;;;;3.83;1.05;;;14.40;53.50;;;;;;5013846;28;20117;-89
2021/05/03 14:03:43;;;;;;;2.67;0.95;;;14.50;52.40;;;;;;5015331;28;20072;-89
2021/05/03 14:06:11;;;;;;;3.15;1.13;;;14.60;51.50;;;;;;5030261;28;20029;-88